AOM7597 LFKB-LFPO
Flight info
| Callsign | AOM7597 |
|---|---|
| Flight time | 1h 26m |
| Altitude | 34000 |
| Route | AKUTI UM616 PIGOS DCT BARSO DCT OKTET DCT GIPNO DCT BULOL DCT IDAVO DCT ARDOL |
| Aircraft | MD83/M-SDFGIRWY/S |
Departure
| Time | 2026-04-25 06:00 |
|---|---|
| Airport | Bastia-Poretta International airport (LFKB) |
Arrival
| Time | 2026-04-25 07:26 |
|---|---|
| Airport | Paris-Orly Airport (LFPO) |
| Time | Latitude | Longitude | Altitude | Speed | Heading |
|---|---|---|---|---|---|
| 2026-04-25 05:16 | 42.54783 | 9.48189 | 39 ft | 0 kts | 283° |
| 2026-04-25 05:53 | 42.54785 | 9.48184 | 39 ft | 1 kts | 308° |
| 2026-04-25 05:53 | 42.54791 | 9.48184 | 39 ft | 1 kts | 4° |
| 2026-04-25 05:53 | 42.54797 | 9.48194 | 38 ft | 3 kts | 57° |
| 2026-04-25 05:53 | 42.54824 | 9.48253 | 36 ft | 10 kts | 46° |
| 2026-04-25 05:54 | 42.54891 | 9.48255 | 35 ft | 10 kts | 343° |
| 2026-04-25 05:54 | 42.54966 | 9.48236 | 35 ft | 11 kts | 355° |
| 2026-04-25 05:54 | 42.55143 | 9.48170 | 39 ft | 15 kts | 343° |
| 2026-04-25 05:55 | 42.55249 | 9.48126 | 36 ft | 18 kts | 343° |
| 2026-04-25 05:55 | 42.55372 | 9.48075 | 34 ft | 19 kts | 342° |
| 2026-04-25 05:55 | 42.55500 | 9.48020 | 32 ft | 20 kts | 342° |
| 2026-04-25 05:55 | 42.55637 | 9.47961 | 32 ft | 21 kts | 342° |
| 2026-04-25 05:56 | 42.55772 | 9.47904 | 30 ft | 21 kts | 342° |
| 2026-04-25 05:56 | 42.55893 | 9.47862 | 27 ft | 17 kts | 7° |
| 2026-04-25 05:56 | 42.55955 | 9.47955 | 26 ft | 14 kts | 71° |
| 2026-04-25 05:56 | 42.55994 | 9.48059 | 25 ft | 10 kts | 20° |
| 2026-04-25 05:57 | 42.56068 | 9.48038 | 25 ft | 11 kts | 341° |
| 2026-04-25 05:57 | 42.56142 | 9.48006 | 24 ft | 12 kts | 342° |
| 2026-04-25 05:57 | 42.56229 | 9.47961 | 23 ft | 14 kts | 323° |
| 2026-04-25 05:57 | 42.56293 | 9.47889 | 23 ft | 8 kts | 357° |
| 2026-04-25 05:58 | 42.56307 | 9.47927 | 23 ft | 4 kts | 123° |
| 2026-04-25 05:58 | 42.56279 | 9.47947 | 21 ft | 5 kts | 161° |
| 2026-04-25 05:58 | 42.56272 | 9.47951 | 21 ft | 0 kts | 161° |
| 2026-04-25 05:59 | 42.56269 | 9.47952 | 21 ft | 8 kts | 161° |
| 2026-04-25 05:59 | 42.56028 | 9.48053 | 23 ft | 66 kts | 163° |
| 2026-04-25 05:59 | 42.55387 | 9.48322 | 37 ft | 125 kts | 163° |
| 2026-04-25 05:59 | 42.54392 | 9.48739 | 99 ft | 168 kts | 164° |
| 2026-04-25 06:00 | 42.53275 | 9.49174 | 805 ft | 164 kts | 166° |
| 2026-04-25 06:00 | 42.52221 | 9.49804 | 1471 ft | 170 kts | 151° |
| 2026-04-25 06:00 | 42.51184 | 9.50697 | 2011 ft | 184 kts | 148° |
| 2026-04-25 06:00 | 42.50085 | 9.51670 | 2515 ft | 196 kts | 148° |
| 2026-04-25 06:01 | 42.48865 | 9.52737 | 2913 ft | 219 kts | 147° |
| 2026-04-25 06:01 | 42.48015 | 9.53507 | 3303 ft | 225 kts | 147° |
| 2026-04-25 06:01 | 42.46683 | 9.54726 | 3842 ft | 237 kts | 146° |
| 2026-04-25 06:01 | 42.44753 | 9.56461 | 4338 ft | 265 kts | 147° |
| 2026-04-25 06:02 | 42.43255 | 9.57975 | 5045 ft | 270 kts | 131° |
| 2026-04-25 06:02 | 42.42363 | 9.60205 | 5780 ft | 274 kts | 100° |
| 2026-04-25 06:02 | 42.42417 | 9.62765 | 6480 ft | 277 kts | 71° |
| 2026-04-25 06:02 | 42.42963 | 9.64316 | 6949 ft | 277 kts | 52° |
| 2026-04-25 06:03 | 42.44400 | 9.66024 | 7640 ft | 278 kts | 24° |
| 2026-04-25 06:03 | 42.46265 | 9.66625 | 8300 ft | 279 kts | 356° |
| 2026-04-25 06:03 | 42.48138 | 9.65970 | 8938 ft | 282 kts | 330° |
| 2026-04-25 06:03 | 42.49791 | 9.64524 | 9589 ft | 285 kts | 324° |
| 2026-04-25 06:04 | 42.51411 | 9.62939 | 10131 ft | 293 kts | 324° |
| 2026-04-25 06:04 | 42.53117 | 9.61224 | 10269 ft | 315 kts | 323° |
| 2026-04-25 06:04 | 42.54917 | 9.59386 | 10463 ft | 333 kts | 323° |
| 2026-04-25 06:04 | 42.56821 | 9.57450 | 10636 ft | 350 kts | 324° |
| 2026-04-25 06:05 | 42.58835 | 9.55447 | 10805 ft | 367 kts | 324° |
| 2026-04-25 06:05 | 42.60933 | 9.53409 | 11246 ft | 373 kts | 325° |
| 2026-04-25 06:05 | 42.63064 | 9.51367 | 11862 ft | 375 kts | 325° |
| 2026-04-25 06:05 | 42.65214 | 9.49325 | 12464 ft | 378 kts | 325° |
| 2026-04-25 06:06 | 42.67354 | 9.47302 | 13016 ft | 382 kts | 325° |
| 2026-04-25 06:06 | 42.69552 | 9.45229 | 13609 ft | 386 kts | 326° |
| 2026-04-25 06:06 | 42.71765 | 9.43136 | 14263 ft | 389 kts | 325° |
| 2026-04-25 06:06 | 42.73989 | 9.41030 | 14885 ft | 391 kts | 325° |
| 2026-04-25 06:07 | 42.76233 | 9.38899 | 15441 ft | 395 kts | 326° |
| 2026-04-25 06:07 | 42.78500 | 9.36739 | 15965 ft | 400 kts | 325° |
| 2026-04-25 06:07 | 42.80788 | 9.34555 | 16554 ft | 402 kts | 325° |
| 2026-04-25 06:07 | 42.83086 | 9.32356 | 17118 ft | 405 kts | 325° |
| 2026-04-25 06:08 | 42.85399 | 9.30133 | 17629 ft | 409 kts | 325° |
| 2026-04-25 06:08 | 42.87739 | 9.27876 | 18142 ft | 413 kts | 325° |
| 2026-04-25 06:08 | 42.90099 | 9.25598 | 18676 ft | 416 kts | 325° |
| 2026-04-25 06:08 | 42.92467 | 9.23316 | 19213 ft | 419 kts | 325° |
| 2026-04-25 06:09 | 42.94847 | 9.20992 | 19685 ft | 423 kts | 321° |
| 2026-04-25 06:09 | 42.96854 | 9.18039 | 20125 ft | 427 kts | 302° |
| 2026-04-25 06:09 | 42.98079 | 9.14358 | 20667 ft | 427 kts | 288° |
| 2026-04-25 06:09 | 42.98984 | 9.10474 | 21102 ft | 431 kts | 288° |
| 2026-04-25 06:10 | 43.00010 | 9.06668 | 21493 ft | 435 kts | 292° |
| 2026-04-25 06:10 | 43.01228 | 9.02866 | 21948 ft | 438 kts | 295° |
| 2026-04-25 06:10 | 43.02559 | 8.99107 | 22431 ft | 440 kts | 296° |
| 2026-04-25 06:10 | 43.03956 | 8.95372 | 22885 ft | 443 kts | 297° |
| 2026-04-25 06:11 | 43.05397 | 8.91623 | 23302 ft | 447 kts | 297° |
| 2026-04-25 06:11 | 43.06859 | 8.87846 | 23739 ft | 449 kts | 297° |
| 2026-04-25 06:11 | 43.08320 | 8.84057 | 24177 ft | 451 kts | 297° |
| 2026-04-25 06:11 | 43.09783 | 8.80234 | 24569 ft | 454 kts | 297° |
| 2026-04-25 06:12 | 43.11241 | 8.76391 | 24969 ft | 457 kts | 297° |
| 2026-04-25 06:12 | 43.12705 | 8.72506 | 25397 ft | 459 kts | 297° |
| 2026-04-25 06:12 | 43.14165 | 8.68615 | 25810 ft | 461 kts | 297° |
| 2026-04-25 06:12 | 43.15621 | 8.64696 | 26208 ft | 463 kts | 297° |
| 2026-04-25 06:13 | 43.17079 | 8.60752 | 26580 ft | 465 kts | 297° |
| 2026-04-25 06:13 | 43.18538 | 8.56806 | 27058 ft | 464 kts | 297° |
| 2026-04-25 06:13 | 43.19992 | 8.52878 | 27616 ft | 461 kts | 297° |
| 2026-04-25 06:14 | 43.22885 | 8.45087 | 28663 ft | 456 kts | 297° |
| 2026-04-25 06:14 | 43.24306 | 8.41263 | 29101 ft | 455 kts | 297° |
| 2026-04-25 06:14 | 43.25741 | 8.37403 | 29558 ft | 453 kts | 297° |
| 2026-04-25 06:14 | 43.27172 | 8.33549 | 30013 ft | 451 kts | 297° |
| 2026-04-25 06:15 | 43.28597 | 8.29708 | 30437 ft | 450 kts | 297° |
| 2026-04-25 06:15 | 43.30013 | 8.25888 | 30842 ft | 448 kts | 297° |
| 2026-04-25 06:15 | 43.31426 | 8.22075 | 31200 ft | 447 kts | 297° |
| 2026-04-25 06:15 | 43.32835 | 8.18270 | 31544 ft | 447 kts | 297° |
| 2026-04-25 06:16 | 43.34233 | 8.14455 | 31877 ft | 446 kts | 297° |
| 2026-04-25 06:16 | 43.35619 | 8.10651 | 32234 ft | 445 kts | 297° |
| 2026-04-25 06:16 | 43.37000 | 8.06848 | 32576 ft | 443 kts | 296° |
| 2026-04-25 06:16 | 43.38374 | 8.03064 | 32896 ft | 442 kts | 297° |
| 2026-04-25 06:17 | 43.39747 | 7.99288 | 33203 ft | 441 kts | 297° |
| 2026-04-25 06:17 | 43.41102 | 7.95570 | 33492 ft | 440 kts | 297° |
| 2026-04-25 06:17 | 43.42475 | 7.91810 | 33789 ft | 438 kts | 297° |
| 2026-04-25 06:17 | 43.43842 | 7.88067 | 33966 ft | 439 kts | 297° |
| 2026-04-25 06:18 | 43.45214 | 7.84305 | 34039 ft | 439 kts | 297° |
| 2026-04-25 06:18 | 43.47947 | 7.76802 | 34086 ft | 437 kts | 297° |
| 2026-04-25 06:19 | 43.50666 | 7.69323 | 34101 ft | 435 kts | 297° |
| 2026-04-25 06:19 | 43.53307 | 7.61862 | 34103 ft | 435 kts | 296° |
| 2026-04-25 06:20 | 43.55957 | 7.54359 | 34103 ft | 435 kts | 296° |
| 2026-04-25 06:20 | 43.58668 | 7.46878 | 34101 ft | 436 kts | 297° |
| 2026-04-25 06:21 | 43.61426 | 7.39414 | 34093 ft | 436 kts | 302° |
| 2026-04-25 06:21 | 43.62988 | 7.36568 | 34101 ft | 435 kts | 317° |
| 2026-04-25 06:21 | 43.65334 | 7.33952 | 34103 ft | 434 kts | 326° |
| 2026-04-25 06:22 | 43.70401 | 7.29376 | 34091 ft | 435 kts | 328° |
| 2026-04-25 06:22 | 43.75487 | 7.24923 | 34093 ft | 436 kts | 327° |
| 2026-04-25 06:23 | 43.80579 | 7.20354 | 34096 ft | 436 kts | 327° |
| 2026-04-25 06:23 | 43.85634 | 7.15706 | 34090 ft | 436 kts | 326° |
| 2026-04-25 06:24 | 43.90691 | 7.11020 | 34096 ft | 437 kts | 326° |
| 2026-04-25 06:24 | 43.95756 | 7.06333 | 34095 ft | 437 kts | 326° |
| 2026-04-25 06:25 | 44.00806 | 7.01655 | 34088 ft | 435 kts | 326° |
| 2026-04-25 06:25 | 44.05829 | 6.96994 | 34087 ft | 432 kts | 326° |
| 2026-04-25 06:26 | 44.10801 | 6.92382 | 34097 ft | 428 kts | 325° |
| 2026-04-25 06:26 | 44.15731 | 6.87783 | 34084 ft | 431 kts | 325° |
| 2026-04-25 06:27 | 44.20731 | 6.83077 | 34097 ft | 435 kts | 325° |
| 2026-04-25 06:27 | 44.25746 | 6.78358 | 34096 ft | 433 kts | 325° |
| 2026-04-25 06:28 | 44.30731 | 6.73682 | 34092 ft | 430 kts | 325° |
| 2026-04-25 06:28 | 44.35649 | 6.69067 | 34095 ft | 427 kts | 325° |
| 2026-04-25 06:29 | 44.40607 | 6.64403 | 34091 ft | 431 kts | 325° |
| 2026-04-25 06:29 | 44.45609 | 6.59685 | 34096 ft | 435 kts | 325° |
| 2026-04-25 06:30 | 44.50607 | 6.54959 | 34094 ft | 431 kts | 325° |
| 2026-04-25 06:30 | 44.55551 | 6.50256 | 34100 ft | 427 kts | 324° |
| 2026-04-25 06:31 | 44.60473 | 6.45573 | 34096 ft | 429 kts | 325° |
| 2026-04-25 06:31 | 44.65434 | 6.40851 | 34090 ft | 432 kts | 325° |
| 2026-04-25 06:32 | 44.70397 | 6.36126 | 34087 ft | 434 kts | 324° |
| 2026-04-25 06:32 | 44.75378 | 6.31381 | 34099 ft | 431 kts | 324° |
| 2026-04-25 06:33 | 44.80329 | 6.26644 | 34101 ft | 429 kts | 324° |
| 2026-04-25 06:33 | 44.85244 | 6.21931 | 34115 ft | 426 kts | 324° |
| 2026-04-25 06:34 | 44.90143 | 6.17200 | 34120 ft | 428 kts | 324° |
| 2026-04-25 06:34 | 44.95083 | 6.12431 | 34123 ft | 432 kts | 324° |
| 2026-04-25 06:35 | 45.00057 | 6.07629 | 34129 ft | 433 kts | 324° |
| 2026-04-25 06:35 | 45.05004 | 6.02846 | 34133 ft | 428 kts | 324° |
| 2026-04-25 06:36 | 45.09900 | 5.98108 | 34137 ft | 425 kts | 324° |
| 2026-04-25 06:36 | 45.14792 | 5.93364 | 34142 ft | 426 kts | 323° |
| 2026-04-25 06:37 | 45.19684 | 5.88601 | 34141 ft | 427 kts | 323° |
| 2026-04-25 06:37 | 45.24547 | 5.83832 | 34133 ft | 428 kts | 323° |
| 2026-04-25 06:38 | 45.29451 | 5.79022 | 34133 ft | 428 kts | 323° |
| 2026-04-25 06:38 | 45.34367 | 5.74213 | 34130 ft | 429 kts | 323° |
| 2026-04-25 06:39 | 45.39274 | 5.69400 | 34130 ft | 429 kts | 323° |
| 2026-04-25 06:39 | 45.44182 | 5.64575 | 34131 ft | 429 kts | 323° |
| 2026-04-25 06:40 | 45.49093 | 5.59742 | 34129 ft | 428 kts | 323° |
| 2026-04-25 06:40 | 45.53985 | 5.54922 | 34131 ft | 427 kts | 323° |
| 2026-04-25 06:41 | 45.58891 | 5.50238 | 34131 ft | 427 kts | 325° |
| 2026-04-25 06:41 | 45.63936 | 5.45739 | 34131 ft | 427 kts | 326° |
| 2026-04-25 06:42 | 45.69001 | 5.41273 | 34130 ft | 427 kts | 326° |
| 2026-04-25 06:42 | 45.74060 | 5.36771 | 34131 ft | 428 kts | 326° |
| 2026-04-25 06:43 | 45.79108 | 5.32237 | 34130 ft | 428 kts | 326° |
| 2026-04-25 06:43 | 45.84157 | 5.27687 | 34124 ft | 429 kts | 326° |
| 2026-04-25 06:44 | 45.89207 | 5.23133 | 34120 ft | 427 kts | 326° |
| 2026-04-25 06:44 | 45.94220 | 5.18605 | 34121 ft | 424 kts | 326° |
| 2026-04-25 06:45 | 45.99168 | 5.14118 | 34121 ft | 422 kts | 326° |
| 2026-04-25 06:45 | 46.04147 | 5.09597 | 34125 ft | 424 kts | 327° |
| 2026-04-25 06:46 | 46.09486 | 5.05839 | 34125 ft | 429 kts | 335° |
| 2026-04-25 06:46 | 46.15004 | 5.02493 | 34120 ft | 428 kts | 335° |
| 2026-04-25 06:47 | 46.20424 | 4.99152 | 34121 ft | 424 kts | 334° |
| 2026-04-25 06:47 | 46.25810 | 4.95736 | 34122 ft | 421 kts | 334° |
| 2026-04-25 06:48 | 46.31184 | 4.92266 | 34123 ft | 425 kts | 334° |
| 2026-04-25 06:48 | 46.35689 | 4.89341 | 34122 ft | 428 kts | 334° |
| 2026-04-25 06:49 | 46.41135 | 4.85823 | 34119 ft | 427 kts | 334° |
| 2026-04-25 06:49 | 46.46540 | 4.82341 | 34119 ft | 423 kts | 334° |
| 2026-04-25 06:50 | 46.51903 | 4.78878 | 34121 ft | 420 kts | 334° |
| 2026-04-25 06:50 | 46.57261 | 4.75408 | 34122 ft | 423 kts | 334° |
| 2026-04-25 06:51 | 46.62666 | 4.71900 | 34122 ft | 426 kts | 334° |
| 2026-04-25 06:51 | 46.68087 | 4.68368 | 34120 ft | 426 kts | 334° |
| 2026-04-25 06:52 | 46.73475 | 4.64856 | 34121 ft | 422 kts | 334° |
| 2026-04-25 06:52 | 46.78822 | 4.61371 | 34122 ft | 419 kts | 334° |
| 2026-04-25 06:53 | 46.84172 | 4.57894 | 34123 ft | 423 kts | 335° |
| 2026-04-25 06:53 | 46.89583 | 4.54392 | 34121 ft | 427 kts | 335° |
| 2026-04-25 06:54 | 46.95005 | 4.50881 | 34119 ft | 424 kts | 335° |
| 2026-04-25 06:54 | 47.00374 | 4.47392 | 34121 ft | 420 kts | 335° |
| 2026-04-25 06:55 | 47.05672 | 4.43939 | 34121 ft | 419 kts | 335° |
| 2026-04-25 06:55 | 47.11032 | 4.40439 | 34124 ft | 423 kts | 335° |
| 2026-04-25 06:56 | 47.16427 | 4.36904 | 34120 ft | 424 kts | 335° |
| 2026-04-25 06:56 | 47.21799 | 4.33370 | 34119 ft | 420 kts | 335° |
| 2026-04-25 06:57 | 47.27116 | 4.29871 | 34121 ft | 417 kts | 335° |
| 2026-04-25 06:57 | 47.32408 | 4.26383 | 34128 ft | 417 kts | 335° |
| 2026-04-25 06:58 | 47.37716 | 4.22879 | 34130 ft | 418 kts | 335° |
| 2026-04-25 06:58 | 47.42834 | 4.19490 | 34132 ft | 419 kts | 335° |
| 2026-04-25 06:59 | 47.48157 | 4.15954 | 34131 ft | 420 kts | 335° |
| 2026-04-25 06:59 | 47.53480 | 4.12386 | 34130 ft | 420 kts | 335° |
| 2026-04-25 07:00 | 47.58811 | 4.08818 | 34132 ft | 419 kts | 336° |
| 2026-04-25 07:00 | 47.64105 | 4.05283 | 34065 ft | 416 kts | 336° |
| 2026-04-25 07:00 | 47.66771 | 4.03504 | 33423 ft | 423 kts | 336° |
| 2026-04-25 07:01 | 47.69449 | 4.01713 | 32799 ft | 421 kts | 336° |
| 2026-04-25 07:01 | 47.72106 | 3.99933 | 32172 ft | 418 kts | 336° |
| 2026-04-25 07:01 | 47.74750 | 3.98161 | 31548 ft | 416 kts | 336° |
| 2026-04-25 07:01 | 47.77358 | 3.96409 | 30927 ft | 417 kts | 335° |
| 2026-04-25 07:02 | 47.79800 | 3.94105 | 30309 ft | 419 kts | 318° |
| 2026-04-25 07:02 | 47.81696 | 3.90780 | 29699 ft | 424 kts | 307° |
| 2026-04-25 07:02 | 47.83337 | 3.87108 | 29059 ft | 426 kts | 305° |
| 2026-04-25 07:02 | 47.84935 | 3.83362 | 28419 ft | 429 kts | 305° |
| 2026-04-25 07:03 | 47.86528 | 3.79594 | 27796 ft | 428 kts | 305° |
| 2026-04-25 07:03 | 47.88118 | 3.75859 | 27169 ft | 425 kts | 306° |
| 2026-04-25 07:03 | 47.89708 | 3.72176 | 26540 ft | 420 kts | 306° |
| 2026-04-25 07:03 | 47.91298 | 3.68545 | 25915 ft | 416 kts | 306° |
| 2026-04-25 07:04 | 47.92867 | 3.65006 | 25295 ft | 412 kts | 307° |
| 2026-04-25 07:04 | 47.94446 | 3.61468 | 24664 ft | 408 kts | 307° |
| 2026-04-25 07:04 | 47.96025 | 3.57942 | 24017 ft | 406 kts | 307° |
| 2026-04-25 07:04 | 47.97755 | 3.54652 | 23319 ft | 400 kts | 315° |
| 2026-04-25 07:05 | 47.99678 | 3.51677 | 22616 ft | 397 kts | 318° |
| 2026-04-25 07:05 | 48.01644 | 3.48798 | 21917 ft | 394 kts | 318° |
| 2026-04-25 07:05 | 48.03604 | 3.45940 | 21209 ft | 392 kts | 317° |
| 2026-04-25 07:05 | 48.05543 | 3.43084 | 20507 ft | 390 kts | 317° |
| 2026-04-25 07:06 | 48.07466 | 3.40216 | 19807 ft | 388 kts | 316° |
| 2026-04-25 07:06 | 48.09360 | 3.37355 | 19104 ft | 386 kts | 316° |
| 2026-04-25 07:06 | 48.11212 | 3.34528 | 18413 ft | 384 kts | 315° |
| 2026-04-25 07:06 | 48.13077 | 3.31666 | 17712 ft | 383 kts | 315° |
| 2026-04-25 07:07 | 48.14929 | 3.28819 | 17008 ft | 380 kts | 315° |
| 2026-04-25 07:07 | 48.16773 | 3.25974 | 16304 ft | 378 kts | 315° |
| 2026-04-25 07:07 | 48.18599 | 3.23148 | 15604 ft | 376 kts | 315° |
| 2026-04-25 07:07 | 48.20418 | 3.20342 | 14901 ft | 374 kts | 315° |
| 2026-04-25 07:08 | 48.22225 | 3.17555 | 14200 ft | 371 kts | 314° |
| 2026-04-25 07:08 | 48.24016 | 3.14788 | 13497 ft | 368 kts | 314° |
| 2026-04-25 07:08 | 48.25771 | 3.12069 | 12803 ft | 366 kts | 314° |
| 2026-04-25 07:08 | 48.27536 | 3.09337 | 12102 ft | 363 kts | 314° |
| 2026-04-25 07:09 | 48.29288 | 3.06630 | 11400 ft | 361 kts | 314° |
| 2026-04-25 07:09 | 48.31025 | 3.03939 | 10756 ft | 356 kts | 314° |
| 2026-04-25 07:09 | 48.32724 | 3.01303 | 10437 ft | 343 kts | 314° |
| 2026-04-25 07:09 | 48.34344 | 2.98791 | 10282 ft | 326 kts | 314° |
| 2026-04-25 07:10 | 48.35877 | 2.96410 | 10212 ft | 308 kts | 314° |
| 2026-04-25 07:10 | 48.37326 | 2.94158 | 10178 ft | 290 kts | 314° |
| 2026-04-25 07:10 | 48.38698 | 2.92031 | 10165 ft | 278 kts | 314° |
| 2026-04-25 07:10 | 48.40034 | 2.89956 | 10164 ft | 276 kts | 314° |
| 2026-04-25 07:11 | 48.41371 | 2.87879 | 10162 ft | 277 kts | 314° |
| 2026-04-25 07:11 | 48.42712 | 2.85797 | 10150 ft | 277 kts | 314° |
| 2026-04-25 07:11 | 48.44056 | 2.83706 | 10146 ft | 277 kts | 314° |
| 2026-04-25 07:11 | 48.45254 | 2.81469 | 10078 ft | 282 kts | 296° |
| 2026-04-25 07:12 | 48.45772 | 2.78509 | 9853 ft | 308 kts | 276° |
| 2026-04-25 07:12 | 48.45950 | 2.71977 | 9334 ft | 311 kts | 272° |
| 2026-04-25 07:12 | 48.45996 | 2.68720 | 9073 ft | 310 kts | 271° |
| 2026-04-25 07:13 | 48.46047 | 2.65476 | 8819 ft | 309 kts | 272° |
| 2026-04-25 07:13 | 48.46096 | 2.62239 | 8558 ft | 309 kts | 271° |
| 2026-04-25 07:13 | 48.46142 | 2.59012 | 8354 ft | 307 kts | 271° |
| 2026-04-25 07:13 | 48.46186 | 2.55798 | 8251 ft | 307 kts | 271° |
| 2026-04-25 07:14 | 48.46231 | 2.52586 | 8204 ft | 307 kts | 272° |
| 2026-04-25 07:14 | 48.46275 | 2.49364 | 8183 ft | 308 kts | 272° |
| 2026-04-25 07:14 | 48.46318 | 2.46148 | 8168 ft | 308 kts | 271° |
| 2026-04-25 07:14 | 48.46360 | 2.42926 | 8166 ft | 308 kts | 271° |
| 2026-04-25 07:15 | 48.46403 | 2.39692 | 7943 ft | 308 kts | 271° |
| 2026-04-25 07:15 | 48.46443 | 2.36513 | 7629 ft | 299 kts | 271° |
| 2026-04-25 07:15 | 48.46482 | 2.33417 | 7300 ft | 293 kts | 271° |
| 2026-04-25 07:15 | 48.46522 | 2.30378 | 6975 ft | 287 kts | 271° |
| 2026-04-25 07:16 | 48.46557 | 2.27394 | 6646 ft | 282 kts | 271° |
| 2026-04-25 07:16 | 48.46586 | 2.24466 | 6334 ft | 278 kts | 271° |
| 2026-04-25 07:16 | 48.46616 | 2.21587 | 6076 ft | 272 kts | 271° |
| 2026-04-25 07:16 | 48.46642 | 2.18763 | 5825 ft | 267 kts | 271° |
| 2026-04-25 07:17 | 48.46673 | 2.15987 | 5577 ft | 263 kts | 271° |
| 2026-04-25 07:17 | 48.46701 | 2.13294 | 5341 ft | 257 kts | 271° |
| 2026-04-25 07:17 | 48.46728 | 2.10611 | 5085 ft | 250 kts | 271° |
| 2026-04-25 07:17 | 48.46753 | 2.08019 | 4823 ft | 245 kts | 272° |
| 2026-04-25 07:18 | 48.46777 | 2.05474 | 4578 ft | 241 kts | 271° |
| 2026-04-25 07:18 | 48.46869 | 2.03014 | 4335 ft | 236 kts | 286° |
| 2026-04-25 07:18 | 48.47737 | 2.01062 | 4155 ft | 223 kts | 331° |
| 2026-04-25 07:18 | 48.49177 | 2.00512 | 4099 ft | 213 kts | 359° |
| 2026-04-25 07:19 | 48.50648 | 2.00424 | 4082 ft | 211 kts | 359° |
| 2026-04-25 07:19 | 48.52105 | 2.00327 | 4033 ft | 208 kts | 360° |
| 2026-04-25 07:19 | 48.53571 | 2.00280 | 4013 ft | 208 kts | 1° |
| 2026-04-25 07:19 | 48.55000 | 2.00272 | 4003 ft | 209 kts | 1° |
| 2026-04-25 07:20 | 48.56453 | 2.00278 | 3984 ft | 209 kts | 1° |
| 2026-04-25 07:20 | 48.57904 | 2.00302 | 4004 ft | 209 kts | 3° |
| 2026-04-25 07:20 | 48.59354 | 2.00351 | 3987 ft | 208 kts | 1° |
| 2026-04-25 07:20 | 48.60808 | 2.00359 | 3986 ft | 209 kts | 6° |
| 2026-04-25 07:21 | 48.62087 | 2.01227 | 3997 ft | 207 kts | 53° |
| 2026-04-25 07:21 | 48.62683 | 2.03199 | 4032 ft | 208 kts | 71° |
| 2026-04-25 07:21 | 48.63188 | 2.05261 | 4024 ft | 209 kts | 68° |
| 2026-04-25 07:21 | 48.63721 | 2.07223 | 3999 ft | 193 kts | 68° |
| 2026-04-25 07:22 | 48.64215 | 2.09094 | 3717 ft | 191 kts | 68° |
| 2026-04-25 07:22 | 48.64532 | 2.10324 | 3513 ft | 189 kts | 68° |
| 2026-04-25 07:22 | 48.65233 | 2.12572 | 3113 ft | 184 kts | 63° |
| 2026-04-25 07:22 | 48.65769 | 2.14154 | 2920 ft | 180 kts | 62° |
| 2026-04-25 07:23 | 48.66340 | 2.15793 | 2638 ft | 180 kts | 62° |
| 2026-04-25 07:23 | 48.66925 | 2.17436 | 2466 ft | 176 kts | 61° |
| 2026-04-25 07:23 | 48.67496 | 2.19040 | 2197 ft | 171 kts | 61° |
| 2026-04-25 07:23 | 48.68048 | 2.20593 | 2012 ft | 163 kts | 61° |
| 2026-04-25 07:24 | 48.68571 | 2.22042 | 1833 ft | 153 kts | 60° |
| 2026-04-25 07:24 | 48.69078 | 2.23422 | 1586 ft | 148 kts | 62° |
| 2026-04-25 07:24 | 48.69550 | 2.24806 | 1381 ft | 148 kts | 61° |
| 2026-04-25 07:24 | 48.70016 | 2.26161 | 1174 ft | 145 kts | 61° |
| 2026-04-25 07:25 | 48.70490 | 2.27480 | 947 ft | 140 kts | 60° |
| 2026-04-25 07:25 | 48.70948 | 2.28758 | 775 ft | 137 kts | 61° |
| 2026-04-25 07:25 | 48.71401 | 2.30043 | 631 ft | 139 kts | 59° |
| 2026-04-25 07:25 | 48.71868 | 2.31336 | 449 ft | 140 kts | 60° |
| 2026-04-25 07:26 | 48.72328 | 2.32620 | 296 ft | 134 kts | 61° |
| 2026-04-25 07:26 | 48.72704 | 2.33686 | 295 ft | 85 kts | 62° |
| 2026-04-25 07:26 | 48.72904 | 2.34254 | 294 ft | 54 kts | 62° |
| 2026-04-25 07:26 | 48.72994 | 2.34587 | 296 ft | 24 kts | 80° |
| 2026-04-25 07:27 | 48.73015 | 2.34804 | 292 ft | 12 kts | 82° |
| 2026-04-25 07:27 | 48.73026 | 2.34915 | 295 ft | 11 kts | 82° |
| 2026-04-25 07:27 | 48.73038 | 2.35032 | 296 ft | 11 kts | 82° |
| 2026-04-25 07:27 | 48.73042 | 2.35153 | 292 ft | 12 kts | 104° |
| 2026-04-25 07:28 | 48.73015 | 2.35277 | 296 ft | 13 kts | 95° |
| 2026-04-25 07:28 | 48.73038 | 2.35408 | 292 ft | 13 kts | 59° |
| 2026-04-25 07:28 | 48.73090 | 2.35531 | 297 ft | 14 kts | 57° |
| 2026-04-25 07:28 | 48.73168 | 2.35614 | 293 ft | 13 kts | 29° |
| 2026-04-25 07:29 | 48.73222 | 2.35722 | 292 ft | 13 kts | 61° |
| 2026-04-25 07:29 | 48.73267 | 2.35850 | 297 ft | 14 kts | 62° |
| 2026-04-25 07:29 | 48.73313 | 2.35985 | 292 ft | 15 kts | 62° |
| 2026-04-25 07:29 | 48.73286 | 2.36099 | 297 ft | 13 kts | 165° |
| 2026-04-25 07:30 | 48.73216 | 2.36022 | 293 ft | 14 kts | 236° |
| 2026-04-25 07:30 | 48.73184 | 2.35966 | 292 ft | 3 kts | 196° |
| 2026-04-25 07:30 | 48.73155 | 2.35967 | 292 ft | 5 kts | 173° |
| 2026-04-25 07:30 | 48.73127 | 2.35973 | 292 ft | 4 kts | 171° |
| 2026-04-25 07:31 | 48.73123 | 2.35974 | 292 ft | 0 kts | 171° |